Liberty — WDC5845 — position and weather

sailwx.info

Track history (hours):
 
Tides and Currents Weather Stations Pressure Air Temp Water Temp Dewpoint Dewpoint Depression Visibility Wind Speed Wind Dir Waves Ship Positions

Liberty

Owner: Tidewater Barge Lines Inc., Vancouver, WA. More information available from US FCC via Universal Licensing System and Coast Guard Vessel Documentation Center.

Last reported at 2018-Jul-21 19:30 UTC. Time now 2018-Jul-21 19:35 UTC.
Position N 46°10' W 123°24'.

Length 34 m; draft 3 m.

Type: Towing. MMSI: 2142822.

Date/timePositionNaut miles runAvg speedWind from/ knotsBaromVisibWave heightAir tempDewpointWater temp
2018-Jul-21 19:30N 46°10' W 123°24'0 0.0
2018-Jul-21 19:00N 46°10' W 123°24'0 0.0
2018-Jul-21 18:30N 46°10' W 123°24'0 0.0
2018-Jul-21 17:57N 46°10' W 123°24'0 0.0
2018-Jul-21 17:30N 46°10' W 123°24'0 0.0
2018-Jul-21 17:00N 46°10' W 123°24'0 0.5
2018-Jul-21 16:30N 46°10' W 123°25'1 1.5
2018-Jul-21 16:00N 46°09' W 123°24'4 8.7
2018-Jul-21 15:31N 46°09' W 123°18'4 7.0
2018-Jul-21 14:57N 46°10' W 123°12'3 7.4
2018-Jul-21 14:29N 46°11' W 123°08'7 7.2
2018-Jul-21 13:31N 46°07' W 122°59'2 4.7
2018-Jul-21 13:00N 46°06' W 122°56'2 5.0
2018-Jul-21 12:31N 46°04' W 122°54'4 8.3
2018-Jul-21 12:00N 46°00' W 122°51'7 8.7
2018-Jul-21 11:12N 45°54' W 122°48'3 8.7
2018-Jul-21 10:50N 45°51' W 122°47'3 8.4
2018-Jul-21 10:30N 45°48' W 122°47'4 8.4
2018-Jul-21 10:00N 45°44' W 122°46'4 8.2
2018-Jul-21 09:31N 45°40' W 122°46'1 1.5
2018-Jul-21 09:01N 45°39' W 122°45'0 0.0
2018-Jul-21 08:29N 45°39' W 122°45'0 0.0
2018-Jul-21 08:01N 45°39' W 122°45'0 0.0
2018-Jul-21 07:09N 45°39' W 122°45'0 0.0
2018-Jul-21 06:59N 45°39' W 122°45'0 0.1
2018-Jul-21 06:18N 45°39' W 122°45'2 6.0
2018-Jul-21 05:56N 45°38' W 122°47'0 0.9
2018-Jul-21 05:30N 45°37' W 122°47'0 0.3
2018-Jul-21 05:00N 45°37' W 122°47'0 0.3
2018-Jul-21 04:30N 45°37' W 122°47'1 1.6
2018-Jul-21 04:00N 45°38' W 122°47'3 6.6
2018-Jul-21 03:31N 45°41' W 122°46'3 6.6
2018-Jul-21 03:01N 45°44' W 122°46'3 6.5
2018-Jul-21 02:30N 45°48' W 122°47'3 6.9
2018-Jul-21 02:01N 45°51' W 122°47'5 7.3
2018-Jul-21 01:20N 45°56' W 122°48'2 6.5
2018-Jul-21 01:00N 45°58' W 122°49'6 7.2
2018-Jul-21 00:13N 46°03' W 122°53'2 7.1
2018-Jul-21 00:00N 46°04' W 122°54'4 6.9
2018-Jul-20 23:29N 46°07' W 122°58'3 6.9
2018-Jul-20 23:00N 46°08' W 123°02'3 6.8
2018-Jul-20 22:30N 46°10' W 123°06'3 6.7
2018-Jul-20 22:00N 46°11' W 123°10'5 6.8
2018-Jul-20 21:14N 46°09' W 123°17'2 7.2
2018-Jul-20 21:01N 46°09' W 123°20'4 6.8
2018-Jul-20 20:29N 46°10' W 123°25'0 0.5
2018-Jul-20 20:01N 46°10' W 123°24'0 0.0
2018-Jul-20 19:17N 46°10' W 123°24'0 0.0
2018-Jul-20 19:00N 46°10' W 123°24'0 0.0
2018-Jul-20 18:30N 46°10' W 123°24'0 0.0
2018-Jul-20 18:00N 46°10' W 123°24'0 0.6
2018-Jul-20 17:31N 46°10' W 123°24'0 0.8
2018-Jul-20 17:00N 46°10' W 123°24'3 5.4
2018-Jul-20 16:22N 46°09' W 123°19'2 6.6
2018-Jul-20 16:00N 46°09' W 123°16'3 6.9
2018-Jul-20 15:30N 46°11' W 123°12'4 6.5
2018-Jul-20 14:55N 46°11' W 123°06'5 7.7
2018-Jul-20 14:17N 46°08' W 123°00'415.9
2018-Jul-20 14:00N 46°05' W 122°55'2 3.6
2018-Jul-20 13:30N 46°04' W 122°53'4 8.1
2018-Jul-20 13:00N 46°00' W 122°51'3 6.7
2018-Jul-20 12:30N 45°57' W 122°49'4 8.0
2018-Jul-20 12:01N 45°53' W 122°48'4 7.9
2018-Jul-20 11:30N 45°50' W 122°48'4 7.8
2018-Jul-20 11:00N 45°46' W 122°46'4 7.7
2018-Jul-20 10:30N 45°42' W 122°46'3 6.9
2018-Jul-20 10:00N 45°39' W 122°47'1 2.6
2018-Jul-20 09:31N 45°37' W 122°47'0 0.1
2018-Jul-20 08:58N 45°37' W 122°47'3 5.5
2018-Jul-20 08:31N 45°39' W 122°45'1 0.9
2018-Jul-20 07:55N 45°39' W 122°45'2 5.5
2018-Jul-20 07:30N 45°37' W 122°47'1 2.2
2018-Jul-20 06:59N 45°36' W 122°47'4 8.9
2018-Jul-20 06:31N 45°33' W 122°43'3 6.0
2018-Jul-20 06:00N 45°35' W 122°46'2 4.6
2018-Jul-20 05:30N 45°37' W 122°47'3 4.9
2018-Jul-20 04:58N 45°40' W 122°46'3 7.1
2018-Jul-20 04:31N 45°43' W 122°46'5 7.9
2018-Jul-20 03:56N 45°47' W 122°47'3 7.6
2018-Jul-20 03:30N 45°51' W 122°47'4 7.7
2018-Jul-20 03:00N 45°54' W 122°49'4 7.5
2018-Jul-20 02:31N 45°58' W 122°50'4 7.6
2018-Jul-20 02:00N 46°01' W 122°52'4 7.2
2018-Jul-20 01:30N 46°05' W 122°54'2 3.8
2018-Jul-20 01:00N 46°06' W 122°56'2 4.7
2018-Jul-20 00:30N 46°07' W 122°59'2 4.6
2018-Jul-20 00:01N 46°09' W 123°02'2 4.4
2018-Jul-19 23:30N 46°10' W 123°05'2 4.6
2018-Jul-19 23:00N 46°11' W 123°07'2 4.8
2018-Jul-19 22:29N 46°11' W 123°11'3 5.2
2018-Jul-19 22:00N 46°10' W 123°14'2 4.9
2018-Jul-19 21:30N 46°09' W 123°17'3 5.6
2018-Jul-19 21:00N 46°09' W 123°21'2 4.3
2018-Jul-19 20:30N 46°10' W 123°24'0 0.6
2018-Jul-19 20:00N 46°10' W 123°24'1 1.0
2018-Jul-19 19:30N 46°09' W 123°24'1 2.6
2018-Jul-19 19:01N 46°10' W 123°25'4 7.5
2018-Jul-19 18:30N 46°14' W 123°26'4 7.2
2018-Jul-19 17:59N 46°16' W 123°31'5 7.5
2018-Jul-19 17:18N 46°15' W 123°38'3 7.5
2018-Jul-19 16:53N 46°14' W 123°42'3 7.9
2018-Jul-19 16:30N 46°13' W 123°46'4 7.4
2018-Jul-19 16:00N 46°12' W 123°51'3 5.1
2018-Jul-19 15:24N 46°11' W 123°55'0 0.0
2018-Jul-19 14:55N 46°11' W 123°55'6 6.7
2018-Jul-19 14:00N 46°13' W 123°47'5 9.4
2018-Jul-19 13:27N 46°15' W 123°40'4 9.1
2018-Jul-19 13:00N 46°15' W 123°34'5 9.2
2018-Jul-19 12:30N 46°16' W 123°28'5 9.7
2018-Jul-19 12:00N 46°11' W 123°26'2 3.8
2018-Jul-19 11:30N 46°09' W 123°24'5 9.5
2018-Jul-19 11:00N 46°09' W 123°17'510.8
2018-Jul-19 10:30N 46°11' W 123°10'610.2
2018-Jul-19 09:55N 46°09' W 123°02'4 8.5
2018-Jul-19 09:30N 46°07' W 122°58'0 0.1
2018-Jul-19 09:01N 46°07' W 122°58'0 0.3
2018-Jul-19 08:30N 46°07' W 122°58'510.4
2018-Jul-19 08:00N 46°03' W 122°53'511.0
2018-Jul-19 07:31N 45°58' W 122°50'610.6
2018-Jul-19 06:59N 45°53' W 122°48'510.1
2018-Jul-19 06:30N 45°48' W 122°47'5 9.8
2018-Jul-19 06:00N 45°43' W 122°46'5 9.4
2018-Jul-19 05:30N 45°38' W 122°47'0 0.7
2018-Jul-19 05:00N 45°39' W 122°46'1 2.8
2018-Jul-19 04:30N 45°39' W 122°44'0 0.0
2018-Jul-19 04:00N 45°39' W 122°44'2 4.4
2018-Jul-19 03:30N 45°38' W 122°47'1 1.3
2018-Jul-19 03:00N 45°37' W 122°47'0 0.1
2018-Jul-19 02:29N 45°37' W 122°47'1 2.6
2018-Jul-19 02:00N 45°36' W 122°47'4 7.4
2018-Jul-19 01:30N 45°33' W 122°43'2 4.9
2018-Jul-19 01:01N 45°35' W 122°46'3 5.0
2018-Jul-19 00:31N 45°37' W 122°47'3 6.1
2018-Jul-19 00:00N 45°40' W 122°46'4 8.1
2018-Jul-18 23:30N 45°44' W 122°46'4 8.0
2018-Jul-18 23:00N 45°48' W 122°47'5 7.6
2018-Jul-18 22:20N 45°53' W 122°48'2 7.6
2018-Jul-18 22:00N 45°56' W 122°48'4 7.6
2018-Jul-18 21:31N 45°59' W 122°50'4 7.5
2018-Jul-18 21:01N 46°02' W 122°53'4 7.3
2018-Jul-18 20:30N 46°06' W 122°56'4 7.5
2018-Jul-18 20:00N 46°08' W 123°00'4 7.4
2018-Jul-18 19:31N 46°10' W 123°05'4 7.6
2018-Jul-18 19:00N 46°11' W 123°10'5 7.5
2018-Jul-18 18:21N 46°09' W 123°16'3 7.7
2018-Jul-18 18:00N 46°09' W 123°20'3 6.9
2018-Jul-18 17:30N 46°10' W 123°24'0 0.2
2018-Jul-18 17:00N 46°10' W 123°25'0 0.6
2018-Jul-18 16:31N 46°10' W 123°24'3 5.7
2018-Jul-18 16:01N 46°09' W 123°20'5 8.1
2018-Jul-18 15:27N 46°10' W 123°14'3 7.5
2018-Jul-18 15:01N 46°11' W 123°10'3 6.7
2018-Jul-18 14:30N 46°10' W 123°05'7 7.2
2018-Jul-18 13:30N 46°06' W 122°57'4 7.4
2018-Jul-18 13:00N 46°03' W 122°53'6 8.3
2018-Jul-18 12:16N 45°58' W 122°49'2 8.4
2018-Jul-18 12:00N 45°56' W 122°48'4 8.7
2018-Jul-18 11:30N 45°51' W 122°47'8 8.3
2018-Jul-18 10:30N 45°43' W 122°46'4 8.6
2018-Jul-18 10:00N 45°39' W 122°46'2 3.7
2018-Jul-18 09:30N 45°37' W 122°47'0 0.0
2018-Jul-18 09:01N 45°37' W 122°47'0 0.0
2018-Jul-18 08:31N 45°37' W 122°47'2 4.6
2018-Jul-18 08:01N 45°39' W 122°46'1 1.7
2018-Jul-18 07:30N 45°39' W 122°44'0 0.0
2018-Jul-18 06:59N 45°39' W 122°44'0 0.0
2018-Jul-18 06:30N 45°39' W 122°44'0 0.0
2018-Jul-18 06:00N 45°39' W 122°44'1 2.1
2018-Jul-18 05:31N 45°39' W 122°46'2 3.1
2018-Jul-18 04:48N 45°37' W 122°47'0 0.1
2018-Jul-18 04:30N 45°37' W 122°47'0 0.1
2018-Jul-18 03:54N 45°37' W 122°47'2 5.3
2018-Jul-18 03:30N 45°39' W 122°46'3 6.6
2018-Jul-18 03:00N 45°42' W 122°46'3 7.1
2018-Jul-18 02:31N 45°46' W 122°46'4 7.3
2018-Jul-18 02:01N 45°49' W 122°48'4 7.3
2018-Jul-18 01:30N 45°53' W 122°48'6 7.3
2018-Jul-18 00:40N 45°59' W 122°50'1 7.3
2018-Jul-18 00:30N 46°00' W 122°51'3 7.0
2018-Jul-18 00:00N 46°03' W 122°53'3 6.8
2018-Jul-17 23:30N 46°06' W 122°56'3 6.8
2018-Jul-17 23:00N 46°08' W 123°00'3 6.5
2018-Jul-17 22:31N 46°10' W 123°04'3 6.7
2018-Jul-17 22:00N 46°11' W 123°08'3 6.2
2018-Jul-17 21:30N 46°10' W 123°13'3 6.0
2018-Jul-17 21:00N 46°09' W 123°17'3 6.6
2018-Jul-17 20:30N 46°09' W 123°21'2 4.8
2018-Jul-17 20:00N 46°10' W 123°25'0 0.0
2018-Jul-17 19:30N 46°10' W 123°25'0 0.0
2018-Jul-17 19:00N 46°10' W 123°25'0 0.0
2018-Jul-17 18:30N 46°10' W 123°25'0 0.0
2018-Jul-17 18:00N 46°10' W 123°25'0 0.0
2018-Jul-17 17:30N 46°10' W 123°25'0 0.0
2018-Jul-17 17:00N 46°10' W 123°25'1 1.2
2018-Jul-17 16:15N 46°09' W 123°24'2 8.8
2018-Jul-17 16:01N 46°09' W 123°21'4 8.3
2018-Jul-17 15:30N 46°10' W 123°15'4 8.4
2018-Jul-17 15:00N 46°11' W 123°09'4 7.6
2018-Jul-17 14:30N 46°10' W 123°04'4 7.6
2018-Jul-17 14:00N 46°08' W 122°60'4 7.4
2018-Jul-17 13:30N 46°05' W 122°55'4 7.3
2018-Jul-17 13:00N 46°02' W 122°53'4 7.5
2018-Jul-17 12:30N 45°59' W 122°50'5 7.3
2018-Jul-17 11:50N 45°54' W 122°48'3 7.7
2018-Jul-17 11:24N 45°51' W 122°47'3 7.6
2018-Jul-17 11:00N 45°48' W 122°47'6 7.8
2018-Jul-17 10:15N 45°42' W 122°46'2 9.5
2018-Jul-17 10:00N 45°40' W 122°46'3 5.5
2018-Jul-17 09:31N 45°37' W 122°47'0 0.0
2018-Jul-17 09:00N 45°37' W 122°47'0 0.0
2018-Jul-17 08:31N 45°37' W 122°47'0 0.2
2018-Jul-17 08:00N 45°37' W 122°47'4 7.9
2018-Jul-17 07:31N 45°34' W 122°44'0 0.1
2018-Jul-17 07:00N 45°34' W 122°44'0 0.0
2018-Jul-17 06:30N 45°34' W 122°44'0 0.0
2018-Jul-17 06:00N 45°34' W 122°44'1 1.1
2018-Jul-17 05:30N 45°34' W 122°44'4 7.1
2018-Jul-17 05:00N 45°37' W 122°47'0 0.4
2018-Jul-17 04:30N 45°37' W 122°47'0 0.4
2018-Jul-17 04:01N 45°37' W 122°47'1 2.9
2018-Jul-17 03:30N 45°39' W 122°46'3 5.3
2018-Jul-17 03:00N 45°41' W 122°46'3 7.1
2018-Jul-17 02:30N 45°45' W 122°46'4 7.5
2018-Jul-17 02:01N 45°48' W 122°48'4 7.8
2018-Jul-17 01:30N 45°52' W 122°47'4 7.8
2018-Jul-17 01:01N 45°56' W 122°48'4 7.7
2018-Jul-17 00:30N 45°60' W 122°51'7 7.2
2018-Jul-16 23:30N 46°06' W 122°56'4 7.3
2018-Jul-16 23:00N 46°08' W 123°00'3 6.9
2018-Jul-16 22:30N 46°10' W 123°05'4 7.1
2018-Jul-16 22:01N 46°11' W 123°09'3 6.8
2018-Jul-16 21:30N 46°10' W 123°14'3 6.4
2018-Jul-16 21:00N 46°09' W 123°18'3 6.7
2018-Jul-16 20:30N 46°09' W 123°23'1 2.7
2018-Jul-16 20:00N 46°10' W 123°25'0 0.0
2018-Jul-16 19:30N 46°10' W 123°25'0 0.0
2018-Jul-16 19:00N 46°10' W 123°25'0 0.0
2018-Jul-16 18:31N 46°10' W 123°25'0 0.0
2018-Jul-16 18:01N 46°10' W 123°25'0 0.0
2018-Jul-16 17:30N 46°10' W 123°25'0 0.0
2018-Jul-16 17:00N 46°10' W 123°25'0 0.6
2018-Jul-16 16:30N 46°10' W 123°24'1 2.4
2018-Jul-16 16:00N 46°09' W 123°23'4 8.5
2018-Jul-16 15:31N 46°09' W 123°17'5 9.6
2018-Jul-16 15:00N 46°11' W 123°10'4 8.4
2018-Jul-16 14:31N 46°10' W 123°05'4 8.4
2018-Jul-16 14:00N 46°08' W 122°60'4 7.9
2018-Jul-16 13:30N 46°05' W 122°55'4 7.6
2018-Jul-16 13:00N 46°02' W 122°53'4 7.9
2018-Jul-16 12:30N 45°58' W 122°50'4 7.8
2018-Jul-16 12:01N 45°55' W 122°48'4 8.5
2018-Jul-16 11:30N 45°50' W 122°47'4 8.9
2018-Jul-16 11:00N 45°46' W 122°46'5 9.4
2018-Jul-16 10:31N 45°41' W 122°46'4 7.9
2018-Jul-16 10:01N 45°38' W 122°47'0 0.7
2018-Jul-16 09:30N 45°37' W 122°47'0 0.0
2018-Jul-16 09:00N 45°37' W 122°47'0 0.0
2018-Jul-16 08:31N 45°37' W 122°47'0 0.0
2018-Jul-16 08:01N 45°37' W 122°47'0 0.0
2018-Jul-16 07:30N 45°37' W 122°47'0 0.0
2018-Jul-16 07:01N 45°37' W 122°47'0 0.0
2018-Jul-16 06:30N 45°37' W 122°47'0 0.2
2018-Jul-16 06:00N 45°37' W 122°47'0 0.3
2018-Jul-16 05:31N 45°37' W 122°47'0 0.2
2018-Jul-16 05:00N 45°37' W 122°47'1 1.0
2018-Jul-16 04:30N 45°38' W 122°47'3 5.9
2018-Jul-16 04:01N 45°41' W 122°46'3 6.0
2018-Jul-16 03:31N 45°44' W 122°46'3 6.5
2018-Jul-16 03:00N 45°47' W 122°46'3 6.4
2018-Jul-16 02:30N 45°50' W 122°47'3 6.5
2018-Jul-16 02:00N 45°53' W 122°48'3 6.7
2018-Jul-16 01:30N 45°56' W 122°48'3 6.6
2018-Jul-16 01:00N 45°59' W 122°51'4 7.1
2018-Jul-16 00:30N 46°03' W 122°53'4 7.0
2018-Jul-16 00:00N 46°05' W 122°55'4 7.1
2018-Jul-15 23:30N 46°08' W 122°60'3 6.7
2018-Jul-15 23:00N 46°09' W 123°04'3 6.9
2018-Jul-15 22:30N 46°11' W 123°08'3 6.3
2018-Jul-15 22:01N 46°10' W 123°13'3 6.3
2018-Jul-15 21:30N 46°09' W 123°17'3 6.5
2018-Jul-15 21:00N 46°09' W 123°21'3 5.0
2018-Jul-15 20:31N 46°10' W 123°25'0 0.0
2018-Jul-15 20:01N 46°10' W 123°25'0 0.8
2018-Jul-15 19:30N 46°09' W 123°24'0 0.0
2018-Jul-15 19:00N 46°09' W 123°24'0 0.0
2018-Jul-15 18:30N 46°09' W 123°24'0 0.1
2018-Jul-15 18:00N 46°09' W 123°24'0 0.0
2018-Jul-15 17:30N 46°09' W 123°24'0 0.0
2018-Jul-15 17:00N 46°09' W 123°24'0 0.0
2018-Jul-15 16:30N 46°09' W 123°24'0 0.0
2018-Jul-15 16:00N 46°09' W 123°24'4 7.4
2018-Jul-15 15:31N 46°09' W 123°19'5 8.8
2018-Jul-15 15:00N 46°10' W 123°13'4 9.2
2018-Jul-15 14:31N 46°11' W 123°06'5 9.6
2018-Jul-15 14:00N 46°08' W 123°01'5 9.0
2018-Jul-15 13:29N 46°05' W 122°55'4 7.9
2018-Jul-15 13:00N 46°02' W 122°53'4 8.1
2018-Jul-15 12:30N 45°59' W 122°50'4 7.8
2018-Jul-15 12:01N 45°55' W 122°49'4 8.6
2018-Jul-15 11:30N 45°51' W 122°47'4 8.8
2018-Jul-15 11:00N 45°46' W 122°46'5 9.4
2018-Jul-15 10:30N 45°42' W 122°46'4 7.4
2018-Jul-15 10:00N 45°38' W 122°47'1 1.6
2018-Jul-15 09:30N 45°37' W 122°47'0 0.0
2018-Jul-15 09:00N 45°37' W 122°47'0 0.0
2018-Jul-15 08:31N 45°37' W 122°47'0 0.0
2018-Jul-15 08:00N 45°37' W 122°47'0 0.0
2018-Jul-15 07:31N 45°37' W 122°47'0 0.0
2018-Jul-15 06:59N 45°37' W 122°47'0 0.0
2018-Jul-15 06:30N 45°37' W 122°47'2 4.2
2018-Jul-15 06:00N 45°39' W 122°46'1 2.1
2018-Jul-15 05:30N 45°40' W 122°46'4 7.1
2018-Jul-15 05:00N 45°44' W 122°46'4 7.1
2018-Jul-15 04:30N 45°47' W 122°47'3 6.9
2018-Jul-15 04:01N 45°51' W 122°47'4 7.5
2018-Jul-15 03:31N 45°54' W 122°49'4 7.8
2018-Jul-15 03:01N 45°58' W 122°49'4 7.8
2018-Jul-15 02:30N 46°01' W 122°52'4 7.1
2018-Jul-15 02:01N 46°05' W 122°54'1 2.4
2018-Jul-15 01:30N 46°05' W 122°55'0 0.0
2018-Jul-15 01:01N 46°05' W 122°55'0 0.0
2018-Jul-15 00:30N 46°05' W 122°55'0 0.0
2018-Jul-15 00:00N 46°05' W 122°55'0 0.0
2018-Jul-14 23:13N 46°05' W 122°55'0 0.0
2018-Jul-14 23:01N 46°05' W 122°55'0 0.3
2018-Jul-14 22:30N 46°05' W 122°56'4 8.1
2018-Jul-14 22:00N 46°08' W 123°00'4 8.2
2018-Jul-14 21:31N 46°10' W 123°05'4 7.7
2018-Jul-14 21:00N 46°11' W 123°11'4 8.0
2018-Jul-14 20:30N 46°09' W 123°16'4 7.9
2018-Jul-14 20:00N 46°09' W 123°21'2 5.0
2018-Jul-14 19:31N 46°10' W 123°25'0 0.9
2018-Jul-14 19:00N 46°09' W 123°24'0 0.9
2018-Jul-14 18:29N 46°10' W 123°25'0 0.0
2018-Jul-14 18:00N 46°10' W 123°25'0 0.0
2018-Jul-14 17:30N 46°10' W 123°25'0 0.0
2018-Jul-14 17:00N 46°10' W 123°25'0 0.0
2018-Jul-14 16:30N 46°10' W 123°25'0 0.7
2018-Jul-14 16:00N 46°10' W 123°24'3 6.5
2018-Jul-14 15:31N 46°09' W 123°20'4 7.1
2018-Jul-14 15:00N 46°10' W 123°15'8 8.1
2018-Jul-14 14:00N 46°09' W 123°03'5 8.7
2018-Jul-14 13:29N 46°06' W 122°58'4 8.0
2018-Jul-14 13:00N 46°04' W 122°53'4 7.3
2018-Jul-14 12:30N 46°01' W 122°51'4 7.1
2018-Jul-14 12:00N 45°58' W 122°49'3 6.7
2018-Jul-14 11:31N 45°54' W 122°48'3 6.6
2018-Jul-14 11:00N 45°51' W 122°47'3 7.0
2018-Jul-14 10:30N 45°48' W 122°47'4 7.6
2018-Jul-14 10:00N 45°44' W 122°46'6 8.0
2018-Jul-14 09:15N 45°38' W 122°47'1 3.4
2018-Jul-14 09:00N 45°37' W 122°47'0 0.2
2018-Jul-14 08:31N 45°37' W 122°47'0 0.2
2018-Jul-14 08:00N 45°37' W 122°47'2 5.0
2018-Jul-14 07:31N 45°39' W 122°45'0 0.3
2018-Jul-14 06:59N 45°39' W 122°44'0 0.0
2018-Jul-14 06:30N 45°39' W 122°44'0 0.0
2018-Jul-14 06:00N 45°39' W 122°44'0 0.0
2018-Jul-14 05:31N 45°39' W 122°44'0 0.0
2018-Jul-14 05:01N 45°39' W 122°44'0 0.0
2018-Jul-14 04:30N 45°39' W 122°44'0 0.0
2018-Jul-14 04:01N 45°39' W 122°44'0 0.9
2018-Jul-14 03:29N 45°39' W 122°45'2 5.0
2018-Jul-14 03:00N 45°37' W 122°47'3 6.7
2018-Jul-14 02:31N 45°40' W 122°46'4 8.5
2018-Jul-14 02:00N 45°45' W 122°46'4 8.7
2018-Jul-14 01:30N 45°49' W 122°48'4 8.6
2018-Jul-14 01:00N 45°53' W 122°48'4 8.2
2018-Jul-14 00:31N 45°57' W 122°49'5 7.9
2018-Jul-13 23:49N 46°02' W 122°53'3 8.0
2018-Jul-13 23:30N 46°04' W 122°53'4 7.8
2018-Jul-13 23:00N 46°06' W 122°58'4 7.6
2018-Jul-13 22:31N 46°09' W 123°02'4 7.7
2018-Jul-13 22:00N 46°11' W 123°07'4 7.2
2018-Jul-13 21:30N 46°11' W 123°12'4 7.2
2018-Jul-13 21:01N 46°09' W 123°17'6 7.4
2018-Jul-13 20:16N 46°10' W 123°25'0 1.5
2018-Jul-13 20:00N 46°09' W 123°24'0 0.0
2018-Jul-13 19:30N 46°09' W 123°24'0 0.0
2018-Jul-13 19:00N 46°09' W 123°24'0 0.1
2018-Jul-13 18:30N 46°09' W 123°24'0 0.1
2018-Jul-13 18:00N 46°09' W 123°24'0 0.8
2018-Jul-13 17:31N 46°10' W 123°24'0 0.2
2018-Jul-13 17:00N 46°10' W 123°24'0 0.7
2018-Jul-13 16:30N 46°10' W 123°24'0 0.1
2018-Jul-13 16:00N 46°09' W 123°24'3 7.0
2018-Jul-13 15:30N 46°09' W 123°19'4 7.7
2018-Jul-13 15:01N 46°10' W 123°14'9 8.6
2018-Jul-13 14:01N 46°09' W 123°02'5 9.7
2018-Jul-13 13:30N 46°06' W 122°56'4 8.7
2018-Jul-13 13:00N 46°02' W 122°53'4 8.6
2018-Jul-13 12:30N 45°58' W 122°50'4 7.7
2018-Jul-13 12:00N 45°55' W 122°49'4 7.3
2018-Jul-13 11:30N 45°51' W 122°47'4 7.4
2018-Jul-13 11:00N 45°47' W 122°47'4 7.4
2018-Jul-13 10:31N 45°44' W 122°46'4 7.7
2018-Jul-13 10:00N 45°40' W 122°46'3 5.9
2018-Jul-13 09:29N 45°37' W 122°47'0 0.0
2018-Jul-13 09:00N 45°37' W 122°47'0 0.0
2018-Jul-13 08:30N 45°37' W 122°47'0 0.0
2018-Jul-13 08:00N 45°37' W 122°47'0 0.0
2018-Jul-13 07:31N 45°37' W 122°47'0 0.0
2018-Jul-13 06:59N 45°37' W 122°47'0 0.0
2018-Jul-13 06:30N 45°37' W 122°47'0 0.2
2018-Jul-13 06:00N 45°37' W 122°47'0 0.2
2018-Jul-13 05:30N 45°37' W 122°47'0 0.1
2018-Jul-13 05:00N 45°37' W 122°47'3 6.4
2018-Jul-13 04:31N 45°40' W 122°46'4 7.3
2018-Jul-13 04:00N 45°44' W 122°46'4 7.2
2018-Jul-13 03:30N 45°48' W 122°47'3 6.8
2018-Jul-13 03:00N 45°51' W 122°47'4 7.2
2018-Jul-13 02:30N 45°54' W 122°49'4 7.2
2018-Jul-13 02:00N 45°58' W 122°49'4 7.7
2018-Jul-13 01:30N 46°01' W 122°52'4 7.7
2018-Jul-13 01:01N 46°05' W 122°54'2 3.5
2018-Jul-13 00:30N 46°06' W 122°56'2 4.6
2018-Jul-13 00:01N 46°07' W 122°59'3 6.5
2018-Jul-12 23:30N 46°09' W 123°03'3 6.7
2018-Jul-12 23:00N 46°11' W 123°07'3 6.5
2018-Jul-12 22:30N 46°11' W 123°11'4 7.1
2018-Jul-12 22:00N 46°09' W 123°16'4 7.4
2018-Jul-12 21:30N 46°09' W 123°21'3 5.1
2018-Jul-12 21:00N 46°10' W 123°25'1 1.4
2018-Jul-12 20:30N 46°10' W 123°25'7 7.8
2018-Jul-12 19:37N 46°16' W 123°30'1 9.4
2018-Jul-12 19:30N 46°16' W 123°32'5 9.4
2018-Jul-12 19:01N 46°16' W 123°38'5 9.8
2018-Jul-12 18:30N 46°13' W 123°45'510.1
2018-Jul-12 18:01N 46°11' W 123°52'3 4.1
2018-Jul-12 17:22N 46°11' W 123°55'0 0.2
2018-Jul-12 17:01N 46°12' W 123°55'0 0.1
2018-Jul-12 16:31N 46°11' W 123°55'2 3.6
2018-Jul-12 16:00N 46°12' W 123°53'510.8
2018-Jul-12 15:30N 46°13' W 123°45'611.2
2018-Jul-12 15:00N 46°16' W 123°38'612.0
2018-Jul-12 14:30N 46°16' W 123°29'510.8
2018-Jul-12 14:01N 46°12' W 123°26'2 4.7
2018-Jul-12 13:30N 46°09' W 123°24'1 1.1
2018-Jul-12 13:00N 46°09' W 123°24'7 9.2
2018-Jul-12 12:17N 46°10' W 123°14'310.7
2018-Jul-12 12:00N 46°11' W 123°10'5 9.7
2018-Jul-12 11:30N 46°09' W 123°04'8 9.1
2018-Jul-12 10:35N 46°05' W 122°54'1 8.7
2018-Jul-12 10:30N 46°04' W 122°53'6 8.0
2018-Jul-12 09:48N 45°59' W 122°50'2 8.1
2018-Jul-12 09:30N 45°57' W 122°48'5 8.3
2018-Jul-12 08:54N 45°52' W 122°47'3 9.0
2018-Jul-12 08:30N 45°48' W 122°48'5 9.5
2018-Jul-12 07:58N 45°43' W 122°46'4 9.6
2018-Jul-12 07:31N 45°39' W 122°46'2 3.5
2018-Jul-12 06:59N 45°37' W 122°47'0 0.3
2018-Jul-12 06:30N 45°37' W 122°47'1 2.4
2018-Jul-12 06:00N 45°36' W 122°47'4 8.3
2018-Jul-12 05:31N 45°33' W 122°43'2 4.7
2018-Jul-12 05:00N 45°35' W 122°45'3 5.0
2018-Jul-12 04:24N 45°37' W 122°47'0 0.0
2018-Jul-12 04:00N 45°37' W 122°47'0 0.0
2018-Jul-12 03:30N 45°37' W 122°47'0 0.0
2018-Jul-12 02:48N 45°37' W 122°47'0 0.1
2018-Jul-12 02:31N 45°37' W 122°47'3 5.1
2018-Jul-12 02:00N 45°39' W 122°44'3 5.2
2018-Jul-12 01:30N 45°37' W 122°47'2 4.2
2018-Jul-12 01:00N 45°39' W 122°46'4 7.4
2018-Jul-12 00:30N 45°43' W 122°46'4 7.7
2018-Jul-12 00:00N 45°47' W 122°46'4 7.6
2018-Jul-11 23:30N 45°50' W 122°47'4 8.1
2018-Jul-11 23:00N 45°54' W 122°49'4 8.0
2018-Jul-11 22:30N 45°58' W 122°50'4 8.2
2018-Jul-11 22:00N 46°02' W 122°53'4 7.9
2018-Jul-11 21:30N 46°05' W 122°55'4 7.9
2018-Jul-11 21:00N 46°08' W 122°60'4 7.6
2018-Jul-11 20:30N 46°10' W 123°04'4 7.9
2018-Jul-11 20:00N 46°11' W 123°10'4 8.0
2018-Jul-11 19:30N 46°10' W 123°15'  
Track history (hours):
 
Tides and Currents Weather Stations Pressure Air Temp Water Temp Dewpoint Dewpoint Depression Visibility Wind Speed Wind Dir Waves Ship Positions

Liberty

Owner: Tidewater Barge Lines Inc., Vancouver, WA. More information available from US FCC via Universal Licensing System and Coast Guard Vessel Documentation Center.

Last reported at 2018-Jul-21 19:30 UTC. Time now 2018-Jul-21 19:35 UTC.
Position N 46°10' W 123°24'.

Length 34 m; draft 3 m.

Type: Towing. MMSI: 2142822.

Date/timePositionNaut miles runAvg speedWind from/ knotsBaromVisibWave heightAir tempDewpointWater temp
2018-Jul-21 19:30N 46°10' W 123°24'0 0.0
2018-Jul-21 19:00N 46°10' W 123°24'0 0.0
2018-Jul-21 18:30N 46°10' W 123°24'0 0.0
2018-Jul-21 17:57N 46°10' W 123°24'0 0.0
2018-Jul-21 17:30N 46°10' W 123°24'0 0.0
2018-Jul-21 17:00N 46°10' W 123°24'0 0.5
2018-Jul-21 16:30N 46°10' W 123°25'1 1.5
2018-Jul-21 16:00N 46°09' W 123°24'4 8.7
2018-Jul-21 15:31N 46°09' W 123°18'4 7.0
2018-Jul-21 14:57N 46°10' W 123°12'3 7.4
2018-Jul-21 14:29N 46°11' W 123°08'7 7.2
2018-Jul-21 13:31N 46°07' W 122°59'2 4.7
2018-Jul-21 13:00N 46°06' W 122°56'2 5.0
2018-Jul-21 12:31N 46°04' W 122°54'4 8.3
2018-Jul-21 12:00N 46°00' W 122°51'7 8.7
2018-Jul-21 11:12N 45°54' W 122°48'3 8.7
2018-Jul-21 10:50N 45°51' W 122°47'3 8.4
2018-Jul-21 10:30N 45°48' W 122°47'4 8.4
2018-Jul-21 10:00N 45°44' W 122°46'4 8.2
2018-Jul-21 09:31N 45°40' W 122°46'1 1.5
2018-Jul-21 09:01N 45°39' W 122°45'0 0.0
2018-Jul-21 08:29N 45°39' W 122°45'0 0.0
2018-Jul-21 08:01N 45°39' W 122°45'0 0.0
2018-Jul-21 07:09N 45°39' W 122°45'0 0.0
2018-Jul-21 06:59N 45°39' W 122°45'0 0.1
2018-Jul-21 06:18N 45°39' W 122°45'2 6.0
2018-Jul-21 05:56N 45°38' W 122°47'0 0.9
2018-Jul-21 05:30N 45°37' W 122°47'0 0.3
2018-Jul-21 05:00N 45°37' W 122°47'0 0.3
2018-Jul-21 04:30N 45°37' W 122°47'1 1.6
2018-Jul-21 04:00N 45°38' W 122°47'3 6.6
2018-Jul-21 03:31N 45°41' W 122°46'3 6.6
2018-Jul-21 03:01N 45°44' W 122°46'3 6.5
2018-Jul-21 02:30N 45°48' W 122°47'3 6.9
2018-Jul-21 02:01N 45°51' W 122°47'5 7.3
2018-Jul-21 01:20N 45°56' W 122°48'2 6.5
2018-Jul-21 01:00N 45°58' W 122°49'6 7.2
2018-Jul-21 00:13N 46°03' W 122°53'2 7.1
2018-Jul-21 00:00N 46°04' W 122°54'4 6.9
2018-Jul-20 23:29N 46°07' W 122°58'3 6.9
2018-Jul-20 23:00N 46°08' W 123°02'3 6.8
2018-Jul-20 22:30N 46°10' W 123°06'3 6.7
2018-Jul-20 22:00N 46°11' W 123°10'5 6.8
2018-Jul-20 21:14N 46°09' W 123°17'2 7.2
2018-Jul-20 21:01N 46°09' W 123°20'4 6.8
2018-Jul-20 20:29N 46°10' W 123°25'0 0.5
2018-Jul-20 20:01N 46°10' W 123°24'0 0.0
2018-Jul-20 19:17N 46°10' W 123°24'0 0.0
2018-Jul-20 19:00N 46°10' W 123°24'0 0.0
2018-Jul-20 18:30N 46°10' W 123°24'0 0.0
2018-Jul-20 18:00N 46°10' W 123°24'0 0.6
2018-Jul-20 17:31N 46°10' W 123°24'0 0.8
2018-Jul-20 17:00N 46°10' W 123°24'3 5.4
2018-Jul-20 16:22N 46°09' W 123°19'2 6.6
2018-Jul-20 16:00N 46°09' W 123°16'3 6.9
2018-Jul-20 15:30N 46°11' W 123°12'4 6.5
2018-Jul-20 14:55N 46°11' W 123°06'5 7.7
2018-Jul-20 14:17N 46°08' W 123°00'415.9
2018-Jul-20 14:00N 46°05' W 122°55'2 3.6
2018-Jul-20 13:30N 46°04' W 122°53'4 8.1
2018-Jul-20 13:00N 46°00' W 122°51'3 6.7
2018-Jul-20 12:30N 45°57' W 122°49'4 8.0
2018-Jul-20 12:01N 45°53' W 122°48'4 7.9
2018-Jul-20 11:30N 45°50' W 122°48'4 7.8
2018-Jul-20 11:00N 45°46' W 122°46'4 7.7
2018-Jul-20 10:30N 45°42' W 122°46'3 6.9
2018-Jul-20 10:00N 45°39' W 122°47'1 2.6
2018-Jul-20 09:31N 45°37' W 122°47'0 0.1
2018-Jul-20 08:58N 45°37' W 122°47'3 5.5
2018-Jul-20 08:31N 45°39' W 122°45'1 0.9
2018-Jul-20 07:55N 45°39' W 122°45'2 5.5
2018-Jul-20 07:30N 45°37' W 122°47'1 2.2
2018-Jul-20 06:59N 45°36' W 122°47'4 8.9
2018-Jul-20 06:31N 45°33' W 122°43'3 6.0
2018-Jul-20 06:00N 45°35' W 122°46'2 4.6
2018-Jul-20 05:30N 45°37' W 122°47'3 4.9
2018-Jul-20 04:58N 45°40' W 122°46'3 7.1
2018-Jul-20 04:31N 45°43' W 122°46'5 7.9
2018-Jul-20 03:56N 45°47' W 122°47'3 7.6
2018-Jul-20 03:30N 45°51' W 122°47'4 7.7
2018-Jul-20 03:00N 45°54' W 122°49'4 7.5
2018-Jul-20 02:31N 45°58' W 122°50'4 7.6
2018-Jul-20 02:00N 46°01' W 122°52'4 7.2
2018-Jul-20 01:30N 46°05' W 122°54'2 3.8
2018-Jul-20 01:00N 46°06' W 122°56'2 4.7
2018-Jul-20 00:30N 46°07' W 122°59'2 4.6
2018-Jul-20 00:01N 46°09' W 123°02'2 4.4
2018-Jul-19 23:30N 46°10' W 123°05'2 4.6
2018-Jul-19 23:00N 46°11' W 123°07'2 4.8
2018-Jul-19 22:29N 46°11' W 123°11'3 5.2
2018-Jul-19 22:00N 46°10' W 123°14'2 4.9
2018-Jul-19 21:30N 46°09' W 123°17'3 5.6
2018-Jul-19 21:00N 46°09' W 123°21'2 4.3
2018-Jul-19 20:30N 46°10' W 123°24'0 0.6
2018-Jul-19 20:00N 46°10' W 123°24'1 1.0
2018-Jul-19 19:30N 46°09' W 123°24'1 2.6
2018-Jul-19 19:01N 46°10' W 123°25'4 7.5
2018-Jul-19 18:30N 46°14' W 123°26'4 7.2
2018-Jul-19 17:59N 46°16' W 123°31'5 7.5
2018-Jul-19 17:18N 46°15' W 123°38'3 7.5
2018-Jul-19 16:53N 46°14' W 123°42'3 7.9
2018-Jul-19 16:30N 46°13' W 123°46'4 7.4
2018-Jul-19 16:00N 46°12' W 123°51'3 5.1
2018-Jul-19 15:24N 46°11' W 123°55'0 0.0
2018-Jul-19 14:55N 46°11' W 123°55'6 6.7
2018-Jul-19 14:00N 46°13' W 123°47'5 9.4
2018-Jul-19 13:27N 46°15' W 123°40'4 9.1
2018-Jul-19 13:00N 46°15' W 123°34'5 9.2
2018-Jul-19 12:30N 46°16' W 123°28'5 9.7
2018-Jul-19 12:00N 46°11' W 123°26'2 3.8
2018-Jul-19 11:30N 46°09' W 123°24'5 9.5
2018-Jul-19 11:00N 46°09' W 123°17'510.8
2018-Jul-19 10:30N 46°11' W 123°10'610.2
2018-Jul-19 09:55N 46°09' W 123°02'4 8.5
2018-Jul-19 09:30N 46°07' W 122°58'0 0.1
2018-Jul-19 09:01N 46°07' W 122°58'0 0.3
2018-Jul-19 08:30N 46°07' W 122°58'510.4
2018-Jul-19 08:00N 46°03' W 122°53'511.0
2018-Jul-19 07:31N 45°58' W 122°50'610.6
2018-Jul-19 06:59N 45°53' W 122°48'510.1
2018-Jul-19 06:30N 45°48' W 122°47'5 9.8
2018-Jul-19 06:00N 45°43' W 122°46'5 9.4
2018-Jul-19 05:30N 45°38' W 122°47'0 0.7
2018-Jul-19 05:00N 45°39' W 122°46'1 2.8
2018-Jul-19 04:30N 45°39' W 122°44'0 0.0
2018-Jul-19 04:00N 45°39' W 122°44'2 4.4
2018-Jul-19 03:30N 45°38' W 122°47'1 1.3
2018-Jul-19 03:00N 45°37' W 122°47'0 0.1
2018-Jul-19 02:29N 45°37' W 122°47'1 2.6
2018-Jul-19 02:00N 45°36' W 122°47'4 7.4
2018-Jul-19 01:30N 45°33' W 122°43'2 4.9
2018-Jul-19 01:01N 45°35' W 122°46'3 5.0
2018-Jul-19 00:31N 45°37' W 122°47'3 6.1
2018-Jul-19 00:00N 45°40' W 122°46'4 8.1
2018-Jul-18 23:30N 45°44' W 122°46'4 8.0
2018-Jul-18 23:00N 45°48' W 122°47'5 7.6
2018-Jul-18 22:20N 45°53' W 122°48'2 7.6
2018-Jul-18 22:00N 45°56' W 122°48'4 7.6
2018-Jul-18 21:31N 45°59' W 122°50'4 7.5
2018-Jul-18 21:01N 46°02' W 122°53'4 7.3
2018-Jul-18 20:30N 46°06' W 122°56'4 7.5
2018-Jul-18 20:00N 46°08' W 123°00'4 7.4
2018-Jul-18 19:31N 46°10' W 123°05'4 7.6
2018-Jul-18 19:00N 46°11' W 123°10'5 7.5
2018-Jul-18 18:21N 46°09' W 123°16'3 7.7
2018-Jul-18 18:00N 46°09' W 123°20'3 6.9
2018-Jul-18 17:30N 46°10' W 123°24'0 0.2
2018-Jul-18 17:00N 46°10' W 123°25'0 0.6
2018-Jul-18 16:31N 46°10' W 123°24'3 5.7
2018-Jul-18 16:01N 46°09' W 123°20'5 8.1
2018-Jul-18 15:27N 46°10' W 123°14'3 7.5
2018-Jul-18 15:01N 46°11' W 123°10'3 6.7
2018-Jul-18 14:30N 46°10' W 123°05'7 7.2
2018-Jul-18 13:30N 46°06' W 122°57'4 7.4
2018-Jul-18 13:00N 46°03' W 122°53'6 8.3
2018-Jul-18 12:16N 45°58' W 122°49'2 8.4
2018-Jul-18 12:00N 45°56' W 122°48'4 8.7
2018-Jul-18 11:30N 45°51' W 122°47'8 8.3
2018-Jul-18 10:30N 45°43' W 122°46'4 8.6
2018-Jul-18 10:00N 45°39' W 122°46'2 3.7
2018-Jul-18 09:30N 45°37' W 122°47'0 0.0
2018-Jul-18 09:01N 45°37' W 122°47'0 0.0
2018-Jul-18 08:31N 45°37' W 122°47'2 4.6
2018-Jul-18 08:01N 45°39' W 122°46'1 1.7
2018-Jul-18 07:30N 45°39' W 122°44'0 0.0
2018-Jul-18 06:59N 45°39' W 122°44'0 0.0
2018-Jul-18 06:30N 45°39' W 122°44'0 0.0
2018-Jul-18 06:00N 45°39' W 122°44'1 2.1
2018-Jul-18 05:31N 45°39' W 122°46'2 3.1
2018-Jul-18 04:48N 45°37' W 122°47'0 0.1
2018-Jul-18 04:30N 45°37' W 122°47'0 0.1
2018-Jul-18 03:54N 45°37' W 122°47'2 5.3
2018-Jul-18 03:30N 45°39' W 122°46'3 6.6
2018-Jul-18 03:00N 45°42' W 122°46'3 7.1
2018-Jul-18 02:31N 45°46' W 122°46'4 7.3
2018-Jul-18 02:01N 45°49' W 122°48'4 7.3
2018-Jul-18 01:30N 45°53' W 122°48'6 7.3
2018-Jul-18 00:40N 45°59' W 122°50'1 7.3
2018-Jul-18 00:30N 46°00' W 122°51'3 7.0
2018-Jul-18 00:00N 46°03' W 122°53'3 6.8
2018-Jul-17 23:30N 46°06' W 122°56'3 6.8
2018-Jul-17 23:00N 46°08' W 123°00'3 6.5
2018-Jul-17 22:31N 46°10' W 123°04'3 6.7
2018-Jul-17 22:00N 46°11' W 123°08'3 6.2
2018-Jul-17 21:30N 46°10' W 123°13'3 6.0
2018-Jul-17 21:00N 46°09' W 123°17'3 6.6
2018-Jul-17 20:30N 46°09' W 123°21'2 4.8
2018-Jul-17 20:00N 46°10' W 123°25'0 0.0
2018-Jul-17 19:30N 46°10' W 123°25'0 0.0
2018-Jul-17 19:00N 46°10' W 123°25'0 0.0
2018-Jul-17 18:30N 46°10' W 123°25'0 0.0
2018-Jul-17 18:00N 46°10' W 123°25'0 0.0
2018-Jul-17 17:30N 46°10' W 123°25'0 0.0
2018-Jul-17 17:00N 46°10' W 123°25'1 1.2
2018-Jul-17 16:15N 46°09' W 123°24'2 8.8
2018-Jul-17 16:01N 46°09' W 123°21'4 8.3
2018-Jul-17 15:30N 46°10' W 123°15'4 8.4
2018-Jul-17 15:00N 46°11' W 123°09'4 7.6
2018-Jul-17 14:30N 46°10' W 123°04'4 7.6
2018-Jul-17 14:00N 46°08' W 122°60'4 7.4
2018-Jul-17 13:30N 46°05' W 122°55'4 7.3
2018-Jul-17 13:00N 46°02' W 122°53'4 7.5
2018-Jul-17 12:30N 45°59' W 122°50'5 7.3
2018-Jul-17 11:50N 45°54' W 122°48'3 7.7
2018-Jul-17 11:24N 45°51' W 122°47'3 7.6
2018-Jul-17 11:00N 45°48' W 122°47'6 7.8
2018-Jul-17 10:15N 45°42' W 122°46'2 9.5
2018-Jul-17 10:00N 45°40' W 122°46'3 5.5
2018-Jul-17 09:31N 45°37' W 122°47'0 0.0
2018-Jul-17 09:00N 45°37' W 122°47'0 0.0
2018-Jul-17 08:31N 45°37' W 122°47'0 0.2
2018-Jul-17 08:00N 45°37' W 122°47'4 7.9
2018-Jul-17 07:31N 45°34' W 122°44'0 0.1
2018-Jul-17 07:00N 45°34' W 122°44'0 0.0
2018-Jul-17 06:30N 45°34' W 122°44'0 0.0
2018-Jul-17 06:00N 45°34' W 122°44'1 1.1
2018-Jul-17 05:30N 45°34' W 122°44'4 7.1
2018-Jul-17 05:00N 45°37' W 122°47'0 0.4
2018-Jul-17 04:30N 45°37' W 122°47'0 0.4
2018-Jul-17 04:01N 45°37' W 122°47'1 2.9
2018-Jul-17 03:30N 45°39' W 122°46'3 5.3
2018-Jul-17 03:00N 45°41' W 122°46'3 7.1
2018-Jul-17 02:30N 45°45' W 122°46'4 7.5
2018-Jul-17 02:01N 45°48' W 122°48'4 7.8
2018-Jul-17 01:30N 45°52' W 122°47'4 7.8
2018-Jul-17 01:01N 45°56' W 122°48'4 7.7
2018-Jul-17 00:30N 45°60' W 122°51'7 7.2
2018-Jul-16 23:30N 46°06' W 122°56'4 7.3
2018-Jul-16 23:00N 46°08' W 123°00'3 6.9
2018-Jul-16 22:30N 46°10' W 123°05'4 7.1
2018-Jul-16 22:01N 46°11' W 123°09'3 6.8
2018-Jul-16 21:30N 46°10' W 123°14'3 6.4
2018-Jul-16 21:00N 46°09' W 123°18'3 6.7
2018-Jul-16 20:30N 46°09' W 123°23'1 2.7
2018-Jul-16 20:00N 46°10' W 123°25'0 0.0
2018-Jul-16 19:30N 46°10' W 123°25'0 0.0
2018-Jul-16 19:00N 46°10' W 123°25'0 0.0
2018-Jul-16 18:31N 46°10' W 123°25'0 0.0
2018-Jul-16 18:01N 46°10' W 123°25'0 0.0
2018-Jul-16 17:30N 46°10' W 123°25'0 0.0
2018-Jul-16 17:00N 46°10' W 123°25'0 0.6
2018-Jul-16 16:30N 46°10' W 123°24'1 2.4
2018-Jul-16 16:00N 46°09' W 123°23'4 8.5
2018-Jul-16 15:31N 46°09' W 123°17'5 9.6
2018-Jul-16 15:00N 46°11' W 123°10'4 8.4
2018-Jul-16 14:31N 46°10' W 123°05'4 8.4
2018-Jul-16 14:00N 46°08' W 122°60'4 7.9
2018-Jul-16 13:30N 46°05' W 122°55'4 7.6
2018-Jul-16 13:00N 46°02' W 122°53'4 7.9
2018-Jul-16 12:30N 45°58' W 122°50'4 7.8
2018-Jul-16 12:01N 45°55' W 122°48'4 8.5
2018-Jul-16 11:30N 45°50' W 122°47'4 8.9
2018-Jul-16 11:00N 45°46' W 122°46'5 9.4
2018-Jul-16 10:31N 45°41' W 122°46'4 7.9
2018-Jul-16 10:01N 45°38' W 122°47'0 0.7
2018-Jul-16 09:30N 45°37' W 122°47'0 0.0
2018-Jul-16 09:00N 45°37' W 122°47'0 0.0
2018-Jul-16 08:31N 45°37' W 122°47'0 0.0
2018-Jul-16 08:01N 45°37' W 122°47'0 0.0
2018-Jul-16 07:30N 45°37' W 122°47'0 0.0
2018-Jul-16 07:01N 45°37' W 122°47'0 0.0
2018-Jul-16 06:30N 45°37' W 122°47'0 0.2
2018-Jul-16 06:00N 45°37' W 122°47'0 0.3
2018-Jul-16 05:31N 45°37' W 122°47'0 0.2
2018-Jul-16 05:00N 45°37' W 122°47'1 1.0
2018-Jul-16 04:30N 45°38' W 122°47'3 5.9
2018-Jul-16 04:01N 45°41' W 122°46'3 6.0
2018-Jul-16 03:31N 45°44' W 122°46'3 6.5
2018-Jul-16 03:00N 45°47' W 122°46'3 6.4
2018-Jul-16 02:30N 45°50' W 122°47'3 6.5
2018-Jul-16 02:00N 45°53' W 122°48'3 6.7
2018-Jul-16 01:30N 45°56' W 122°48'3 6.6
2018-Jul-16 01:00N 45°59' W 122°51'4 7.1
2018-Jul-16 00:30N 46°03' W 122°53'4 7.0
2018-Jul-16 00:00N 46°05' W 122°55'4 7.1
2018-Jul-15 23:30N 46°08' W 122°60'3 6.7
2018-Jul-15 23:00N 46°09' W 123°04'3 6.9
2018-Jul-15 22:30N 46°11' W 123°08'3 6.3
2018-Jul-15 22:01N 46°10' W 123°13'3 6.3
2018-Jul-15 21:30N 46°09' W 123°17'3 6.5
2018-Jul-15 21:00N 46°09' W 123°21'3 5.0
2018-Jul-15 20:31N 46°10' W 123°25'0 0.0
2018-Jul-15 20:01N 46°10' W 123°25'0 0.8
2018-Jul-15 19:30N 46°09' W 123°24'0 0.0
2018-Jul-15 19:00N 46°09' W 123°24'0 0.0
2018-Jul-15 18:30N 46°09' W 123°24'0 0.1
2018-Jul-15 18:00N 46°09' W 123°24'0 0.0
2018-Jul-15 17:30N 46°09' W 123°24'0 0.0
2018-Jul-15 17:00N 46°09' W 123°24'0 0.0
2018-Jul-15 16:30N 46°09' W 123°24'0 0.0
2018-Jul-15 16:00N 46°09' W 123°24'4 7.4
2018-Jul-15 15:31N 46°09' W 123°19'5 8.8
2018-Jul-15 15:00N 46°10' W 123°13'4 9.2
2018-Jul-15 14:31N 46°11' W 123°06'5 9.6
2018-Jul-15 14:00N 46°08' W 123°01'5 9.0
2018-Jul-15 13:29N 46°05' W 122°55'4 7.9
2018-Jul-15 13:00N 46°02' W 122°53'4 8.1
2018-Jul-15 12:30N 45°59' W 122°50'4 7.8
2018-Jul-15 12:01N 45°55' W 122°49'4 8.6
2018-Jul-15 11:30N 45°51' W 122°47'4 8.8
2018-Jul-15 11:00N 45°46' W 122°46'5 9.4
2018-Jul-15 10:30N 45°42' W 122°46'4 7.4
2018-Jul-15 10:00N 45°38' W 122°47'1 1.6
2018-Jul-15 09:30N 45°37' W 122°47'0 0.0
2018-Jul-15 09:00N 45°37' W 122°47'0 0.0
2018-Jul-15 08:31N 45°37' W 122°47'0 0.0
2018-Jul-15 08:00N 45°37' W 122°47'0 0.0
2018-Jul-15 07:31N 45°37' W 122°47'0 0.0
2018-Jul-15 06:59N 45°37' W 122°47'0 0.0
2018-Jul-15 06:30N 45°37' W 122°47'2 4.2
2018-Jul-15 06:00N 45°39' W 122°46'1 2.1
2018-Jul-15 05:30N 45°40' W 122°46'4 7.1
2018-Jul-15 05:00N 45°44' W 122°46'4 7.1
2018-Jul-15 04:30N 45°47' W 122°47'3 6.9
2018-Jul-15 04:01N 45°51' W 122°47'4 7.5
2018-Jul-15 03:31N 45°54' W 122°49'4 7.8
2018-Jul-15 03:01N 45°58' W 122°49'4 7.8
2018-Jul-15 02:30N 46°01' W 122°52'4 7.1
2018-Jul-15 02:01N 46°05' W 122°54'1 2.4
2018-Jul-15 01:30N 46°05' W 122°55'0 0.0
2018-Jul-15 01:01N 46°05' W 122°55'0 0.0
2018-Jul-15 00:30N 46°05' W 122°55'0 0.0
2018-Jul-15 00:00N 46°05' W 122°55'0 0.0
2018-Jul-14 23:13N 46°05' W 122°55'0 0.0
2018-Jul-14 23:01N 46°05' W 122°55'0 0.3
2018-Jul-14 22:30N 46°05' W 122°56'4 8.1
2018-Jul-14 22:00N 46°08' W 123°00'4 8.2
2018-Jul-14 21:31N 46°10' W 123°05'4 7.7
2018-Jul-14 21:00N 46°11' W 123°11'4 8.0
2018-Jul-14 20:30N 46°09' W 123°16'4 7.9
2018-Jul-14 20:00N 46°09' W 123°21'2 5.0
2018-Jul-14 19:31N 46°10' W 123°25'0 0.9
2018-Jul-14 19:00N 46°09' W 123°24'0 0.9
2018-Jul-14 18:29N 46°10' W 123°25'0 0.0
2018-Jul-14 18:00N 46°10' W 123°25'0 0.0
2018-Jul-14 17:30N 46°10' W 123°25'0 0.0
2018-Jul-14 17:00N 46°10' W 123°25'0 0.0
2018-Jul-14 16:30N 46°10' W 123°25'0 0.7
2018-Jul-14 16:00N 46°10' W 123°24'3 6.5
2018-Jul-14 15:31N 46°09' W 123°20'4 7.1
2018-Jul-14 15:00N 46°10' W 123°15'8 8.1
2018-Jul-14 14:00N 46°09' W 123°03'5 8.7
2018-Jul-14 13:29N 46°06' W 122°58'4 8.0
2018-Jul-14 13:00N 46°04' W 122°53'4 7.3
2018-Jul-14 12:30N 46°01' W 122°51'4 7.1
2018-Jul-14 12:00N 45°58' W 122°49'3 6.7
2018-Jul-14 11:31N 45°54' W 122°48'3 6.6
2018-Jul-14 11:00N 45°51' W 122°47'3 7.0
2018-Jul-14 10:30N 45°48' W 122°47'4 7.6
2018-Jul-14 10:00N 45°44' W 122°46'6 8.0
2018-Jul-14 09:15N 45°38' W 122°47'1 3.4
2018-Jul-14 09:00N 45°37' W 122°47'0 0.2
2018-Jul-14 08:31N 45°37' W 122°47'0 0.2
2018-Jul-14 08:00N 45°37' W 122°47'2 5.0
2018-Jul-14 07:31N 45°39' W 122°45'0 0.3
2018-Jul-14 06:59N 45°39' W 122°44'0 0.0
2018-Jul-14 06:30N 45°39' W 122°44'0 0.0
2018-Jul-14 06:00N 45°39' W 122°44'0 0.0
2018-Jul-14 05:31N 45°39' W 122°44'0 0.0
2018-Jul-14 05:01N 45°39' W 122°44'0 0.0
2018-Jul-14 04:30N 45°39' W 122°44'0 0.0
2018-Jul-14 04:01N 45°39' W 122°44'0 0.9
2018-Jul-14 03:29N 45°39' W 122°45'2 5.0
2018-Jul-14 03:00N 45°37' W 122°47'3 6.7
2018-Jul-14 02:31N 45°40' W 122°46'4 8.5
2018-Jul-14 02:00N 45°45' W 122°46'4 8.7
2018-Jul-14 01:30N 45°49' W 122°48'4 8.6
2018-Jul-14 01:00N 45°53' W 122°48'4 8.2
2018-Jul-14 00:31N 45°57' W 122°49'5 7.9
2018-Jul-13 23:49N 46°02' W 122°53'3 8.0
2018-Jul-13 23:30N 46°04' W 122°53'4 7.8
2018-Jul-13 23:00N 46°06' W 122°58'4 7.6
2018-Jul-13 22:31N 46°09' W 123°02'4 7.7
2018-Jul-13 22:00N 46°11' W 123°07'4 7.2
2018-Jul-13 21:30N 46°11' W 123°12'4 7.2
2018-Jul-13 21:01N 46°09' W 123°17'6 7.4
2018-Jul-13 20:16N 46°10' W 123°25'0 1.5
2018-Jul-13 20:00N 46°09' W 123°24'0 0.0
2018-Jul-13 19:30N 46°09' W 123°24'0 0.0
2018-Jul-13 19:00N 46°09' W 123°24'0 0.1
2018-Jul-13 18:30N 46°09' W 123°24'0 0.1
2018-Jul-13 18:00N 46°09' W 123°24'0 0.8
2018-Jul-13 17:31N 46°10' W 123°24'0 0.2
2018-Jul-13 17:00N 46°10' W 123°24'0 0.7
2018-Jul-13 16:30N 46°10' W 123°24'0 0.1
2018-Jul-13 16:00N 46°09' W 123°24'3 7.0
2018-Jul-13 15:30N 46°09' W 123°19'4 7.7
2018-Jul-13 15:01N 46°10' W 123°14'9 8.6
2018-Jul-13 14:01N 46°09' W 123°02'5 9.7
2018-Jul-13 13:30N 46°06' W 122°56'4 8.7
2018-Jul-13 13:00N 46°02' W 122°53'4 8.6
2018-Jul-13 12:30N 45°58' W 122°50'4 7.7
2018-Jul-13 12:00N 45°55' W 122°49'4 7.3
2018-Jul-13 11:30N 45°51' W 122°47'4 7.4
2018-Jul-13 11:00N 45°47' W 122°47'4 7.4
2018-Jul-13 10:31N 45°44' W 122°46'4 7.7
2018-Jul-13 10:00N 45°40' W 122°46'3 5.9
2018-Jul-13 09:29N 45°37' W 122°47'0 0.0
2018-Jul-13 09:00N 45°37' W 122°47'0 0.0
2018-Jul-13 08:30N 45°37' W 122°47'0 0.0
2018-Jul-13 08:00N 45°37' W 122°47'0 0.0
2018-Jul-13 07:31N 45°37' W 122°47'0 0.0
2018-Jul-13 06:59N 45°37' W 122°47'0 0.0
2018-Jul-13 06:30N 45°37' W 122°47'0 0.2
2018-Jul-13 06:00N 45°37' W 122°47'0 0.2
2018-Jul-13 05:30N 45°37' W 122°47'0 0.1
2018-Jul-13 05:00N 45°37' W 122°47'3 6.4
2018-Jul-13 04:31N 45°40' W 122°46'4 7.3
2018-Jul-13 04:00N 45°44' W 122°46'4 7.2
2018-Jul-13 03:30N 45°48' W 122°47'3 6.8
2018-Jul-13 03:00N 45°51' W 122°47'4 7.2
2018-Jul-13 02:30N 45°54' W 122°49'4 7.2
2018-Jul-13 02:00N 45°58' W 122°49'4 7.7
2018-Jul-13 01:30N 46°01' W 122°52'4 7.7
2018-Jul-13 01:01N 46°05' W 122°54'2 3.5
2018-Jul-13 00:30N 46°06' W 122°56'2 4.6
2018-Jul-13 00:01N 46°07' W 122°59'3 6.5
2018-Jul-12 23:30N 46°09' W 123°03'3 6.7
2018-Jul-12 23:00N 46°11' W 123°07'3 6.5
2018-Jul-12 22:30N 46°11' W 123°11'4 7.1
2018-Jul-12 22:00N 46°09' W 123°16'4 7.4
2018-Jul-12 21:30N 46°09' W 123°21'3 5.1
2018-Jul-12 21:00N 46°10' W 123°25'1 1.4
2018-Jul-12 20:30N 46°10' W 123°25'7 7.8
2018-Jul-12 19:37N 46°16' W 123°30'1 9.4
2018-Jul-12 19:30N 46°16' W 123°32'5 9.4
2018-Jul-12 19:01N 46°16' W 123°38'5 9.8
2018-Jul-12 18:30N 46°13' W 123°45'510.1
2018-Jul-12 18:01N 46°11' W 123°52'3 4.1
2018-Jul-12 17:22N 46°11' W 123°55'0 0.2
2018-Jul-12 17:01N 46°12' W 123°55'0 0.1
2018-Jul-12 16:31N 46°11' W 123°55'2 3.6
2018-Jul-12 16:00N 46°12' W 123°53'510.8
2018-Jul-12 15:30N 46°13' W 123°45'611.2
2018-Jul-12 15:00N 46°16' W 123°38'612.0
2018-Jul-12 14:30N 46°16' W 123°29'510.8
2018-Jul-12 14:01N 46°12' W 123°26'2 4.7
2018-Jul-12 13:30N 46°09' W 123°24'1 1.1
2018-Jul-12 13:00N 46°09' W 123°24'7 9.2
2018-Jul-12 12:17N 46°10' W 123°14'310.7
2018-Jul-12 12:00N 46°11' W 123°10'5 9.7
2018-Jul-12 11:30N 46°09' W 123°04'8 9.1
2018-Jul-12 10:35N 46°05' W 122°54'1 8.7
2018-Jul-12 10:30N 46°04' W 122°53'6 8.0
2018-Jul-12 09:48N 45°59' W 122°50'2 8.1
2018-Jul-12 09:30N 45°57' W 122°48'5 8.3
2018-Jul-12 08:54N 45°52' W 122°47'3 9.0
2018-Jul-12 08:30N 45°48' W 122°48'5 9.5
2018-Jul-12 07:58N 45°43' W 122°46'4 9.6
2018-Jul-12 07:31N 45°39' W 122°46'2 3.5
2018-Jul-12 06:59N 45°37' W 122°47'0 0.3
2018-Jul-12 06:30N 45°37' W 122°47'1 2.4
2018-Jul-12 06:00N 45°36' W 122°47'4 8.3
2018-Jul-12 05:31N 45°33' W 122°43'2 4.7
2018-Jul-12 05:00N 45°35' W 122°45'3 5.0
2018-Jul-12 04:24N 45°37' W 122°47'0 0.0
2018-Jul-12 04:00N 45°37' W 122°47'0 0.0
2018-Jul-12 03:30N 45°37' W 122°47'0 0.0
2018-Jul-12 02:48N 45°37' W 122°47'0 0.1
2018-Jul-12 02:31N 45°37' W 122°47'3 5.1
2018-Jul-12 02:00N 45°39' W 122°44'3 5.2
2018-Jul-12 01:30N 45°37' W 122°47'2 4.2
2018-Jul-12 01:00N 45°39' W 122°46'4 7.4
2018-Jul-12 00:30N 45°43' W 122°46'4 7.7
2018-Jul-12 00:00N 45°47' W 122°46'4 7.6
2018-Jul-11 23:30N 45°50' W 122°47'4 8.1
2018-Jul-11 23:00N 45°54' W 122°49'4 8.0
2018-Jul-11 22:30N 45°58' W 122°50'4 8.2
2018-Jul-11 22:00N 46°02' W 122°53'4 7.9
2018-Jul-11 21:30N 46°05' W 122°55'4 7.9
2018-Jul-11 21:00N 46°08' W 122°60'4 7.6
2018-Jul-11 20:30N 46°10' W 123°04'4 7.9
2018-Jul-11 20:00N 46°11' W 123°10'4 8.0
2018-Jul-11 19:30N 46°10' W 123°15'  

Dump ship's entire track history